sensor_id;sensor_type;location;lat;lon;timestamp;temperature;humidity
16289;DHT22;26089;43.538;5.250;2023-05-15T00:01:21;15.50;99.90
16289;DHT22;26089;43.538;5.250;2023-05-15T00:03:50;15.50;99.90
16289;DHT22;26089;43.538;5.250;2023-05-15T00:06:17;15.40;99.90
16289;DHT22;26089;43.538;5.250;2023-05-15T00:08:44;15.40;99.90
16289;DHT22;26089;43.538;5.250;2023-05-15T00:11:11;15.30;99.90
16289;DHT22;26089;43.538;5.250;2023-05-15T00:13:38;15.30;99.90
16289;DHT22;26089;43.538;5.250;2023-05-15T00:16:05;15.30;99.90
16289;DHT22;26089;43.538;5.250;2023-05-15T00:18:33;15.30;99.90
16289;DHT22;26089;43.538;5.250;2023-05-15T00:21:02;15.30;99.90
16289;DHT22;26089;43.538;5.250;2023-05-15T00:23:29;15.30;99.90
16289;DHT22;26089;43.538;5.250;2023-05-15T00:25:56;15.20;99.90
16289;DHT22;26089;43.538;5.250;2023-05-15T00:28:23;15.20;99.90
16289;DHT22;26089;43.538;5.250;2023-05-15T00:30:50;15.20;99.90
16289;DHT22;26089;43.538;5.250;2023-05-15T00:33:17;15.20;99.90
16289;DHT22;26089;43.538;5.250;2023-05-15T00:35:44;15.20;99.90
16289;DHT22;26089;43.538;5.250;2023-05-15T00:38:13;15.20;99.90
16289;DHT22;26089;43.538;5.250;2023-05-15T00:40:40;15.20;99.90
16289;DHT22;26089;43.538;5.250;2023-05-15T00:43:09;15.20;99.90
16289;DHT22;26089;43.538;5.250;2023-05-15T00:45:38;15.20;99.90
16289;DHT22;26089;43.538;5.250;2023-05-15T00:48:08;15.20;99.90
16289;DHT22;26089;43.538;5.250;2023-05-15T00:50:35;15.10;99.90
16289;DHT22;26089;43.538;5.250;2023-05-15T00:53:02;15.10;99.90
16289;DHT22;26089;43.538;5.250;2023-05-15T00:55:32;15.00;99.90
16289;DHT22;26089;43.538;5.250;2023-05-15T00:58:00;15.00;99.90
16289;DHT22;26089;43.538;5.250;2023-05-15T01:00:27;15.00;99.90
16289;DHT22;26089;43.538;5.250;2023-05-15T01:02:55;15.00;99.90
16289;DHT22;26089;43.538;5.250;2023-05-15T01:05:22;15.00;99.90
16289;DHT22;26089;43.538;5.250;2023-05-15T01:07:53;15.00;99.90
16289;DHT22;26089;43.538;5.250;2023-05-15T01:10:22;14.90;99.90
16289;DHT22;26089;43.538;5.250;2023-05-15T01:12:52;14.90;99.90
16289;DHT22;26089;43.538;5.250;2023-05-15T01:15:21;14.90;99.90
16289;DHT22;26089;43.538;5.250;2023-05-15T01:17:49;14.90;99.90
16289;DHT22;26089;43.538;5.250;2023-05-15T01:20:17;14.90;99.90
16289;DHT22;26089;43.538;5.250;2023-05-15T01:22:52;14.90;99.90
16289;DHT22;26089;43.538;5.250;2023-05-15T01:25:51;14.90;99.90
16289;DHT22;26089;43.538;5.250;2023-05-15T01:28:27;14.90;99.90
16289;DHT22;26089;43.538;5.250;2023-05-15T01:30:58;14.90;99.90
16289;DHT22;26089;43.538;5.250;2023-05-15T01:33:32;14.80;99.90
16289;DHT22;26089;43.538;5.250;2023-05-15T01:36:05;14.80;99.90
16289;DHT22;26089;43.538;5.250;2023-05-15T01:38:37;14.80;99.90
16289;DHT22;26089;43.538;5.250;2023-05-15T01:41:09;14.80;99.90
16289;DHT22;26089;43.538;5.250;2023-05-15T01:43:39;14.80;99.90
16289;DHT22;26089;43.538;5.250;2023-05-15T01:46:08;14.80;99.90
16289;DHT22;26089;43.538;5.250;2023-05-15T01:48:38;14.80;99.90
16289;DHT22;26089;43.538;5.250;2023-05-15T01:51:07;14.80;99.90
16289;DHT22;26089;43.538;5.250;2023-05-15T01:53:36;14.80;99.90
16289;DHT22;26089;43.538;5.250;2023-05-15T01:56:06;14.80;99.90
16289;DHT22;26089;43.538;5.250;2023-05-15T01:58:37;14.80;99.90
16289;DHT22;26089;43.538;5.250;2023-05-15T02:01:05;14.90;99.90
16289;DHT22;26089;43.538;5.250;2023-05-15T02:03:33;14.80;99.90
16289;DHT22;26089;43.538;5.250;2023-05-15T02:06:01;14.70;99.90
16289;DHT22;26089;43.538;5.250;2023-05-15T02:08:29;14.80;99.90
16289;DHT22;26089;43.538;5.250;2023-05-15T02:10:58;14.80;99.90
16289;DHT22;26089;43.538;5.250;2023-05-15T02:13:26;14.70;99.90
16289;DHT22;26089;43.538;5.250;2023-05-15T02:15:55;14.70;99.90
16289;DHT22;26089;43.538;5.250;2023-05-15T02:18:22;14.70;99.90
16289;DHT22;26089;43.538;5.250;2023-05-15T02:20:49;14.70;99.90
16289;DHT22;26089;43.538;5.250;2023-05-15T02:23:16;14.60;99.90
16289;DHT22;26089;43.538;5.250;2023-05-15T02:25:53;14.70;99.90
16289;DHT22;26089;43.538;5.250;2023-05-15T02:28:29;14.70;99.90
16289;DHT22;26089;43.538;5.250;2023-05-15T02:31:02;14.70;99.90
16289;DHT22;26089;43.538;5.250;2023-05-15T02:33:36;14.70;99.90
16289;DHT22;26089;43.538;5.250;2023-05-15T02:36:08;14.60;99.90
16289;DHT22;26089;43.538;5.250;2023-05-15T02:38:40;14.60;99.90
16289;DHT22;26089;43.538;5.250;2023-05-15T02:41:08;14.60;99.90
16289;DHT22;26089;43.538;5.250;2023-05-15T02:43:37;14.60;99.90
16289;DHT22;26089;43.538;5.250;2023-05-15T02:46:07;14.50;99.90
16289;DHT22;26089;43.538;5.250;2023-05-15T02:48:34;14.50;99.90
16289;DHT22;26089;43.538;5.250;2023-05-15T02:51:04;14.50;99.90
16289;DHT22;26089;43.538;5.250;2023-05-15T02:53:31;14.50;99.90
16289;DHT22;26089;43.538;5.250;2023-05-15T02:55:58;14.50;99.90
16289;DHT22;26089;43.538;5.250;2023-05-15T02:58:27;14.50;99.90
16289;DHT22;26089;43.538;5.250;2023-05-15T03:00:54;14.50;99.90
16289;DHT22;26089;43.538;5.250;2023-05-15T03:03:22;14.40;99.90
16289;DHT22;26089;43.538;5.250;2023-05-15T03:05:49;14.40;99.90
16289;DHT22;26089;43.538;5.250;2023-05-15T03:08:17;14.40;99.90
16289;DHT22;26089;43.538;5.250;2023-05-15T03:10:44;14.40;99.90
16289;DHT22;26089;43.538;5.250;2023-05-15T03:13:11;14.40;99.90
16289;DHT22;26089;43.538;5.250;2023-05-15T03:15:38;14.40;99.90
16289;DHT22;26089;43.538;5.250;2023-05-15T03:18:05;14.40;99.90
16289;DHT22;26089;43.538;5.250;2023-05-15T03:20:34;14.30;99.90
16289;DHT22;26089;43.538;5.250;2023-05-15T03:23:01;14.30;99.90
16289;DHT22;26089;43.538;5.250;2023-05-15T03:25:28;14.30;99.90
16289;DHT22;26089;43.538;5.250;2023-05-15T03:27:55;14.30;99.90
16289;DHT22;26089;43.538;5.250;2023-05-15T03:30:22;14.30;99.90
16289;DHT22;26089;43.538;5.250;2023-05-15T03:32:48;14.30;99.90
16289;DHT22;26089;43.538;5.250;2023-05-15T03:35:16;14.30;99.90
16289;DHT22;26089;43.538;5.250;2023-05-15T03:37:44;14.30;99.90
16289;DHT22;26089;43.538;5.250;2023-05-15T03:40:12;14.30;99.90
16289;DHT22;26089;43.538;5.250;2023-05-15T03:42:39;14.30;99.90
16289;DHT22;26089;43.538;5.250;2023-05-15T03:45:07;14.20;99.90
16289;DHT22;26089;43.538;5.250;2023-05-15T03:47:34;14.30;99.90
16289;DHT22;26089;43.538;5.250;2023-05-15T03:50:01;14.30;99.90
16289;DHT22;26089;43.538;5.250;2023-05-15T03:52:28;14.30;99.90
16289;DHT22;26089;43.538;5.250;2023-05-15T03:54:57;14.30;99.90
16289;DHT22;26089;43.538;5.250;2023-05-15T03:57:23;14.30;99.90
16289;DHT22;26089;43.538;5.250;2023-05-15T03:59:50;14.30;99.90
16289;DHT22;26089;43.538;5.250;2023-05-15T04:02:17;14.30;99.90
16289;DHT22;26089;43.538;5.250;2023-05-15T04:04:44;14.30;99.90
16289;DHT22;26089;43.538;5.250;2023-05-15T04:07:11;14.30;99.90
16289;DHT22;26089;43.538;5.250;2023-05-15T04:09:38;14.20;99.90
16289;DHT22;26089;43.538;5.250;2023-05-15T04:12:07;14.20;99.90
16289;DHT22;26089;43.538;5.250;2023-05-15T04:14:34;14.20;99.90
16289;DHT22;26089;43.538;5.250;2023-05-15T04:17:01;14.20;99.90
16289;DHT22;26089;43.538;5.250;2023-05-15T04:19:28;14.10;99.90
16289;DHT22;26089;43.538;5.250;2023-05-15T04:21:55;14.20;99.90
16289;DHT22;26089;43.538;5.250;2023-05-15T04:24:22;14.20;99.90
16289;DHT22;26089;43.538;5.250;2023-05-15T04:26:49;14.20;99.90
16289;DHT22;26089;43.538;5.250;2023-05-15T04:29:17;14.20;99.90
16289;DHT22;26089;43.538;5.250;2023-05-15T04:31:45;14.20;99.90
16289;DHT22;26089;43.538;5.250;2023-05-15T04:34:12;14.30;99.90
16289;DHT22;26089;43.538;5.250;2023-05-15T04:36:39;14.30;99.90
16289;DHT22;26089;43.538;5.250;2023-05-15T04:39:06;14.30;99.90
16289;DHT22;26089;43.538;5.250;2023-05-15T04:41:33;14.30;99.90
16289;DHT22;26089;43.538;5.250;2023-05-15T04:44:00;14.40;99.90
16289;DHT22;26089;43.538;5.250;2023-05-15T04:46:29;14.30;99.90
16289;DHT22;26089;43.538;5.250;2023-05-15T04:48:59;14.40;99.90
16289;DHT22;26089;43.538;5.250;2023-05-15T04:51:26;14.40;99.90
16289;DHT22;26089;43.538;5.250;2023-05-15T04:53:53;14.40;99.90
16289;DHT22;26089;43.538;5.250;2023-05-15T04:56:19;14.50;99.90
16289;DHT22;26089;43.538;5.250;2023-05-15T04:58:47;14.50;99.90
16289;DHT22;26089;43.538;5.250;2023-05-15T05:01:13;14.60;99.90
16289;DHT22;26089;43.538;5.250;2023-05-15T05:03:42;14.60;99.90
16289;DHT22;26089;43.538;5.250;2023-05-15T05:06:09;14.60;99.90
16289;DHT22;26089;43.538;5.250;2023-05-15T05:08:36;14.60;99.90
16289;DHT22;26089;43.538;5.250;2023-05-15T05:11:03;14.60;99.90
16289;DHT22;26089;43.538;5.250;2023-05-15T05:13:29;14.60;99.90
16289;DHT22;26089;43.538;5.250;2023-05-15T05:15:56;14.60;99.90
16289;DHT22;26089;43.538;5.250;2023-05-15T05:18:23;14.60;99.90
16289;DHT22;26089;43.538;5.250;2023-05-15T05:20:59;14.70;99.90
16289;DHT22;26089;43.538;5.250;2023-05-15T05:23:26;14.80;99.90
16289;DHT22;26089;43.538;5.250;2023-05-15T05:25:53;14.80;99.90
16289;DHT22;26089;43.538;5.250;2023-05-15T05:28:20;14.80;99.90
16289;DHT22;26089;43.538;5.250;2023-05-15T05:30:47;14.80;99.90
16289;DHT22;26089;43.538;5.250;2023-05-15T05:33:15;14.80;99.90
16289;DHT22;26089;43.538;5.250;2023-05-15T05:35:42;14.90;99.90
16289;DHT22;26089;43.538;5.250;2023-05-15T05:38:10;15.00;99.90
16289;DHT22;26089;43.538;5.250;2023-05-15T05:40:37;14.90;99.90
16289;DHT22;26089;43.538;5.250;2023-05-15T05:43:04;15.00;99.90
16289;DHT22;26089;43.538;5.250;2023-05-15T05:45:31;15.00;99.90
16289;DHT22;26089;43.538;5.250;2023-05-15T05:47:58;15.10;99.90
16289;DHT22;26089;43.538;5.250;2023-05-15T05:50:25;15.10;99.90
16289;DHT22;26089;43.538;5.250;2023-05-15T05:52:52;15.10;99.90
16289;DHT22;26089;43.538;5.250;2023-05-15T05:55:20;15.20;99.90
16289;DHT22;26089;43.538;5.250;2023-05-15T05:57:47;15.20;99.90
16289;DHT22;26089;43.538;5.250;2023-05-15T06:00:16;15.20;99.90
16289;DHT22;26089;43.538;5.250;2023-05-15T06:02:43;15.30;99.90
16289;DHT22;26089;43.538;5.250;2023-05-15T06:05:10;15.30;99.90
16289;DHT22;26089;43.538;5.250;2023-05-15T06:07:38;15.40;99.90
16289;DHT22;26089;43.538;5.250;2023-05-15T06:10:06;15.40;99.90
16289;DHT22;26089;43.538;5.250;2023-05-15T06:12:35;15.50;99.90
16289;DHT22;26089;43.538;5.250;2023-05-15T06:15:02;15.80;99.90
16289;DHT22;26089;43.538;5.250;2023-05-15T06:17:29;16.10;99.90
16289;DHT22;26089;43.538;5.250;2023-05-15T06:19:56;16.50;99.90
16289;DHT22;26089;43.538;5.250;2023-05-15T06:22:23;17.50;99.90
16289;DHT22;26089;43.538;5.250;2023-05-15T06:24:50;18.40;99.90
16289;DHT22;26089;43.538;5.250;2023-05-15T06:27:17;19.10;99.90
16289;DHT22;26089;43.538;5.250;2023-05-15T06:29:46;19.60;99.90
16289;DHT22;26089;43.538;5.250;2023-05-15T06:32:12;19.60;99.90
16289;DHT22;26089;43.538;5.250;2023-05-15T06:34:39;19.60;99.90
16289;DHT22;26089;43.538;5.250;2023-05-15T06:37:06;20.10;99.90
16289;DHT22;26089;43.538;5.250;2023-05-15T06:39:33;20.60;99.90
16289;DHT22;26089;43.538;5.250;2023-05-15T06:42:01;20.70;99.90
16289;DHT22;26089;43.538;5.250;2023-05-15T06:44:29;20.90;99.90
16289;DHT22;26089;43.538;5.250;2023-05-15T06:46:58;21.10;99.90
16289;DHT22;26089;43.538;5.250;2023-05-15T06:49:25;21.20;99.90
16289;DHT22;26089;43.538;5.250;2023-05-15T06:51:52;21.20;99.90
16289;DHT22;26089;43.538;5.250;2023-05-15T06:54:20;20.90;99.90
16289;DHT22;26089;43.538;5.250;2023-05-15T06:56:47;21.20;99.90
16289;DHT22;26089;43.538;5.250;2023-05-15T06:59:14;21.30;99.90
16289;DHT22;26089;43.538;5.250;2023-05-15T07:01:41;21.20;99.90
16289;DHT22;26089;43.538;5.250;2023-05-15T07:04:09;21.00;99.90
16289;DHT22;26089;43.538;5.250;2023-05-15T07:06:36;21.00;99.90
16289;DHT22;26089;43.538;5.250;2023-05-15T07:09:03;21.50;99.90
16289;DHT22;26089;43.538;5.250;2023-05-15T07:11:30;21.80;99.90
16289;DHT22;26089;43.538;5.250;2023-05-15T07:14:01;21.70;99.90
16289;DHT22;26089;43.538;5.250;2023-05-15T07:16:28;21.50;99.90
16289;DHT22;26089;43.538;5.250;2023-05-15T07:18:55;21.60;99.90
16289;DHT22;26089;43.538;5.250;2023-05-15T07:21:24;21.70;99.90
16289;DHT22;26089;43.538;5.250;2023-05-15T07:23:51;21.20;99.90
16289;DHT22;26089;43.538;5.250;2023-05-15T07:26:18;21.10;99.90
16289;DHT22;26089;43.538;5.250;2023-05-15T07:28:45;21.60;99.90
16289;DHT22;26089;43.538;5.250;2023-05-15T07:31:12;21.60;99.90
16289;DHT22;26089;43.538;5.250;2023-05-15T07:33:39;21.70;99.90
16289;DHT22;26089;43.538;5.250;2023-05-15T07:36:06;21.80;99.90
16289;DHT22;26089;43.538;5.250;2023-05-15T07:38:34;22.10;99.90
16289;DHT22;26089;43.538;5.250;2023-05-15T07:41:01;22.50;99.90
16289;DHT22;26089;43.538;5.250;2023-05-15T07:43:28;21.70;99.90
16289;DHT22;26089;43.538;5.250;2023-05-15T07:45:55;21.80;99.90
16289;DHT22;26089;43.538;5.250;2023-05-15T07:48:22;21.80;99.90
16289;DHT22;26089;43.538;5.250;2023-05-15T07:50:49;21.60;99.90
16289;DHT22;26089;43.538;5.250;2023-05-15T07:53:17;21.50;99.90
16289;DHT22;26089;43.538;5.250;2023-05-15T07:55:45;21.90;99.90
16289;DHT22;26089;43.538;5.250;2023-05-15T07:58:12;21.60;99.90
16289;DHT22;26089;43.538;5.250;2023-05-15T08:00:39;21.80;99.90
16289;DHT22;26089;43.538;5.250;2023-05-15T08:03:06;21.50;99.90
16289;DHT22;26089;43.538;5.250;2023-05-15T08:05:33;21.70;99.90
16289;DHT22;26089;43.538;5.250;2023-05-15T08:08:00;22.20;99.90
16289;DHT22;26089;43.538;5.250;2023-05-15T08:10:27;22.00;99.90
16289;DHT22;26089;43.538;5.250;2023-05-15T08:12:56;21.70;99.90
16289;DHT22;26089;43.538;5.250;2023-05-15T08:15:23;21.20;99.90
16289;DHT22;26089;43.538;5.250;2023-05-15T08:40:35;22.20;99.90
16289;DHT22;26089;43.538;5.250;2023-05-15T08:43:06;22.90;99.90
16289;DHT22;26089;43.538;5.250;2023-05-15T08:45:35;23.00;99.90
16289;DHT22;26089;43.538;5.250;2023-05-15T08:48:07;22.80;99.90
16289;DHT22;26089;43.538;5.250;2023-05-15T08:50:37;22.80;99.90
16289;DHT22;26089;43.538;5.250;2023-05-15T08:53:04;23.10;99.90
16289;DHT22;26089;43.538;5.250;2023-05-15T08:55:31;22.70;99.90
16289;DHT22;26089;43.538;5.250;2023-05-15T08:58:00;22.70;99.90
16289;DHT22;26089;43.538;5.250;2023-05-15T09:00:28;22.70;99.90
16289;DHT22;26089;43.538;5.250;2023-05-15T09:02:59;22.80;99.90
16289;DHT22;26089;43.538;5.250;2023-05-15T09:05:27;23.10;99.90
16289;DHT22;26089;43.538;5.250;2023-05-15T09:07:56;23.30;99.90
16289;DHT22;26089;43.538;5.250;2023-05-15T09:10:24;23.10;99.90
16289;DHT22;26089;43.538;5.250;2023-05-15T09:12:52;23.40;99.90
16289;DHT22;26089;43.538;5.250;2023-05-15T09:15:22;23.60;99.90
16289;DHT22;26089;43.538;5.250;2023-05-15T10:14:28;25.00;99.90
16289;DHT22;26089;43.538;5.250;2023-05-15T10:16:56;25.30;99.90
16289;DHT22;26089;43.538;5.250;2023-05-15T10:19:24;25.60;99.90
16289;DHT22;26089;43.538;5.250;2023-05-15T10:21:53;25.70;99.90
16289;DHT22;26089;43.538;5.250;2023-05-15T10:24:22;25.60;99.90
16289;DHT22;26089;43.538;5.250;2023-05-15T10:26:51;25.80;99.90
16289;DHT22;26089;43.538;5.250;2023-05-15T10:29:21;26.00;99.90
16289;DHT22;26089;43.538;5.250;2023-05-15T10:31:51;26.10;99.90
16289;DHT22;26089;43.538;5.250;2023-05-15T10:34:19;25.80;99.90
16289;DHT22;26089;43.538;5.250;2023-05-15T10:36:48;26.00;99.90
16289;DHT22;26089;43.538;5.250;2023-05-15T10:39:16;26.10;99.90
16289;DHT22;26089;43.538;5.250;2023-05-15T10:41:45;26.00;99.90
16289;DHT22;26089;43.538;5.250;2023-05-15T10:44:13;26.50;99.90
16289;DHT22;26089;43.538;5.250;2023-05-15T10:46:41;26.50;99.90
16289;DHT22;26089;43.538;5.250;2023-05-15T10:49:10;26.00;99.90
16289;DHT22;26089;43.538;5.250;2023-05-15T10:51:37;26.40;99.90
16289;DHT22;26089;43.538;5.250;2023-05-15T10:54:05;26.70;99.90
16289;DHT22;26089;43.538;5.250;2023-05-15T10:56:37;26.50;99.90
16289;DHT22;26089;43.538;5.250;2023-05-15T10:59:05;27.00;99.90
16289;DHT22;26089;43.538;5.250;2023-05-15T11:01:33;26.30;99.90
16289;DHT22;26089;43.538;5.250;2023-05-15T11:04:05;26.50;99.90
16289;DHT22;26089;43.538;5.250;2023-05-15T11:06:34;26.90;99.90
16289;DHT22;26089;43.538;5.250;2023-05-15T11:09:35;27.30;99.90
16289;DHT22;26089;43.538;5.250;2023-05-15T11:12:04;27.60;99.90
16289;DHT22;26089;43.538;5.250;2023-05-15T11:14:33;27.90;99.90
16289;DHT22;26089;43.538;5.250;2023-05-15T11:17:02;27.30;99.90
16289;DHT22;26089;43.538;5.250;2023-05-15T11:22:21;27.40;99.90
16289;DHT22;26089;43.538;5.250;2023-05-15T11:24:53;27.50;99.90
16289;DHT22;26089;43.538;5.250;2023-05-15T11:27:22;27.20;99.90
16289;DHT22;26089;43.538;5.250;2023-05-15T11:30:20;27.00;99.90
16289;DHT22;26089;43.538;5.250;2023-05-15T11:32:53;27.30;99.90
16289;DHT22;26089;43.538;5.250;2023-05-15T11:35:22;27.40;99.90
16289;DHT22;26089;43.538;5.250;2023-05-15T11:37:52;27.30;99.90
16289;DHT22;26089;43.538;5.250;2023-05-15T11:40:22;28.00;99.90
16289;DHT22;26089;43.538;5.250;2023-05-15T11:43:06;28.40;99.90
16289;DHT22;26089;43.538;5.250;2023-05-15T11:45:35;28.50;99.90
16289;DHT22;26089;43.538;5.250;2023-05-15T11:48:04;28.50;99.90
16289;DHT22;26089;43.538;5.250;2023-05-15T11:50:32;28.40;99.90
16289;DHT22;26089;43.538;5.250;2023-05-15T11:53:05;28.40;99.90
16289;DHT22;26089;43.538;5.250;2023-05-15T11:55:34;28.00;99.90
16289;DHT22;26089;43.538;5.250;2023-05-15T11:58:01;27.70;99.90
16289;DHT22;26089;43.538;5.250;2023-05-15T12:00:29;27.90;99.90
16289;DHT22;26089;43.538;5.250;2023-05-15T12:02:56;27.70;99.90
16289;DHT22;26089;43.538;5.250;2023-05-15T12:05:23;28.30;99.90
16289;DHT22;26089;43.538;5.250;2023-05-15T12:07:50;28.90;99.90
16289;DHT22;26089;43.538;5.250;2023-05-15T12:10:18;28.60;99.90
16289;DHT22;26089;43.538;5.250;2023-05-15T12:12:45;28.70;99.90
16289;DHT22;26089;43.538;5.250;2023-05-15T12:15:15;28.40;99.90
16289;DHT22;26089;43.538;5.250;2023-05-15T12:17:44;28.40;99.90
16289;DHT22;26089;43.538;5.250;2023-05-15T12:20:14;28.00;99.90
16289;DHT22;26089;43.538;5.250;2023-05-15T12:22:41;27.90;99.90
16289;DHT22;26089;43.538;5.250;2023-05-15T12:25:09;28.40;99.90
16289;DHT22;26089;43.538;5.250;2023-05-15T12:27:38;28.30;99.90
16289;DHT22;26089;43.538;5.250;2023-05-15T12:30:06;28.70;99.90
16289;DHT22;26089;43.538;5.250;2023-05-15T12:32:34;28.70;99.90
16289;DHT22;26089;43.538;5.250;2023-05-15T12:35:02;28.30;99.90
16289;DHT22;26089;43.538;5.250;2023-05-15T12:37:30;28.00;99.90
16289;DHT22;26089;43.538;5.250;2023-05-15T12:40:00;27.70;99.90
16289;DHT22;26089;43.538;5.250;2023-05-15T12:42:29;27.50;99.90
16289;DHT22;26089;43.538;5.250;2023-05-15T12:44:57;27.50;99.90
16289;DHT22;26089;43.538;5.250;2023-05-15T12:47:26;27.90;99.90
16289;DHT22;26089;43.538;5.250;2023-05-15T12:49:55;27.70;99.90
16289;DHT22;26089;43.538;5.250;2023-05-15T12:52:22;27.30;99.90
16289;DHT22;26089;43.538;5.250;2023-05-15T12:54:53;27.10;99.90
16289;DHT22;26089;43.538;5.250;2023-05-15T12:57:20;27.30;99.90
16289;DHT22;26089;43.538;5.250;2023-05-15T12:59:47;27.40;99.90
16289;DHT22;26089;43.538;5.250;2023-05-15T13:02:16;27.80;99.90
16289;DHT22;26089;43.538;5.250;2023-05-15T13:04:45;28.10;99.90
16289;DHT22;26089;43.538;5.250;2023-05-15T13:07:14;28.00;99.90
16289;DHT22;26089;43.538;5.250;2023-05-15T13:09:42;27.60;99.90
16289;DHT22;26089;43.538;5.250;2023-05-15T13:12:11;27.60;99.90
16289;DHT22;26089;43.538;5.250;2023-05-15T13:14:38;28.40;99.90
16289;DHT22;26089;43.538;5.250;2023-05-15T13:17:05;28.30;99.90
16289;DHT22;26089;43.538;5.250;2023-05-15T13:19:33;28.20;99.90
16289;DHT22;26089;43.538;5.250;2023-05-15T13:22:00;28.50;99.90
16289;DHT22;26089;43.538;5.250;2023-05-15T13:24:27;27.80;99.90
16289;DHT22;26089;43.538;5.250;2023-05-15T13:26:54;27.60;99.90
16289;DHT22;26089;43.538;5.250;2023-05-15T13:29:21;27.10;99.90
16289;DHT22;26089;43.538;5.250;2023-05-15T13:31:47;27.40;99.90
16289;DHT22;26089;43.538;5.250;2023-05-15T13:34:14;27.70;99.80
16289;DHT22;26089;43.538;5.250;2023-05-15T13:36:43;27.20;99.90
16289;DHT22;26089;43.538;5.250;2023-05-15T13:39:10;27.30;99.90
16289;DHT22;26089;43.538;5.250;2023-05-15T13:41:37;27.40;99.90
16289;DHT22;26089;43.538;5.250;2023-05-15T13:44:04;27.80;99.90
16289;DHT22;26089;43.538;5.250;2023-05-15T13:46:30;27.60;99.90
16289;DHT22;26089;43.538;5.250;2023-05-15T13:48:57;27.40;99.90
16289;DHT22;26089;43.538;5.250;2023-05-15T13:51:25;27.30;99.90
16289;DHT22;26089;43.538;5.250;2023-05-15T13:53:53;27.10;99.90
16289;DHT22;26089;43.538;5.250;2023-05-15T13:56:20;27.10;99.90
16289;DHT22;26089;43.538;5.250;2023-05-15T13:58:48;27.40;99.90
16289;DHT22;26089;43.538;5.250;2023-05-15T14:01:14;27.10;99.90
16289;DHT22;26089;43.538;5.250;2023-05-15T14:03:41;27.20;99.90
16289;DHT22;26089;43.538;5.250;2023-05-15T14:06:09;26.70;99.90
16289;DHT22;26089;43.538;5.250;2023-05-15T14:08:36;26.90;99.90
16289;DHT22;26089;43.538;5.250;2023-05-15T14:11:05;27.10;99.90
16289;DHT22;26089;43.538;5.250;2023-05-15T14:13:33;26.90;99.90
16289;DHT22;26089;43.538;5.250;2023-05-15T14:16:00;26.60;99.90
16289;DHT22;26089;43.538;5.250;2023-05-15T14:18:27;26.70;99.90
16289;DHT22;26089;43.538;5.250;2023-05-15T14:20:54;26.90;99.90
16289;DHT22;26089;43.538;5.250;2023-05-15T14:23:21;26.90;99.90
16289;DHT22;26089;43.538;5.250;2023-05-15T14:25:48;26.90;99.90
16289;DHT22;26089;43.538;5.250;2023-05-15T14:28:17;26.90;99.90
16289;DHT22;26089;43.538;5.250;2023-05-15T14:30:44;27.00;99.90
16289;DHT22;26089;43.538;5.250;2023-05-15T14:33:11;27.00;99.90
16289;DHT22;26089;43.538;5.250;2023-05-15T14:35:37;27.00;99.90
16289;DHT22;26089;43.538;5.250;2023-05-15T14:38:05;26.90;99.90
16289;DHT22;26089;43.538;5.250;2023-05-15T14:40:32;27.20;99.90
16289;DHT22;26089;43.538;5.250;2023-05-15T14:42:59;26.40;99.90
16289;DHT22;26089;43.538;5.250;2023-05-15T14:45:27;26.30;99.90
16289;DHT22;26089;43.538;5.250;2023-05-15T14:47:54;26.00;99.90
16289;DHT22;26089;43.538;5.250;2023-05-15T14:50:21;25.90;99.90
16289;DHT22;26089;43.538;5.250;2023-05-15T14:52:48;25.90;99.90
16289;DHT22;26089;43.538;5.250;2023-05-15T14:55:15;25.70;99.90
16289;DHT22;26089;43.538;5.250;2023-05-15T14:57:46;25.60;99.90
16289;DHT22;26089;43.538;5.250;2023-05-15T15:00:15;26.00;99.90
16289;DHT22;26089;43.538;5.250;2023-05-15T15:02:44;26.30;99.90
16289;DHT22;26089;43.538;5.250;2023-05-15T15:05:11;26.20;99.90
16289;DHT22;26089;43.538;5.250;2023-05-15T15:07:58;26.00;99.90
16289;DHT22;26089;43.538;5.250;2023-05-15T15:10:26;26.00;99.90
16289;DHT22;26089;43.538;5.250;2023-05-15T15:12:53;25.90;99.90
16289;DHT22;26089;43.538;5.250;2023-05-15T15:15:20;25.80;99.90
16289;DHT22;26089;43.538;5.250;2023-05-15T15:17:49;25.80;99.90
16289;DHT22;26089;43.538;5.250;2023-05-15T15:20:18;25.40;99.90
16289;DHT22;26089;43.538;5.250;2023-05-15T15:22:45;25.60;99.90
16289;DHT22;26089;43.538;5.250;2023-05-15T15:25:12;25.60;99.90
16289;DHT22;26089;43.538;5.250;2023-05-15T15:27:39;25.70;99.90
16289;DHT22;26089;43.538;5.250;2023-05-15T15:30:08;25.50;99.90
16289;DHT22;26089;43.538;5.250;2023-05-15T15:32:35;25.30;99.90
16289;DHT22;26089;43.538;5.250;2023-05-15T15:35:04;25.30;99.90
16289;DHT22;26089;43.538;5.250;2023-05-15T15:37:32;25.00;99.90
16289;DHT22;26089;43.538;5.250;2023-05-15T15:39:59;24.90;99.90
16289;DHT22;26089;43.538;5.250;2023-05-15T15:42:27;24.90;99.90
16289;DHT22;26089;43.538;5.250;2023-05-15T15:44:54;25.00;99.90
16289;DHT22;26089;43.538;5.250;2023-05-15T15:47:22;25.30;99.90
16289;DHT22;26089;43.538;5.250;2023-05-15T15:49:49;25.10;99.90
16289;DHT22;26089;43.538;5.250;2023-05-15T15:52:18;24.70;99.90
16289;DHT22;26089;43.538;5.250;2023-05-15T15:54:45;24.70;99.90
16289;DHT22;26089;43.538;5.250;2023-05-15T15:57:12;24.40;99.90
16289;DHT22;26089;43.538;5.250;2023-05-15T15:59:40;24.60;99.90
16289;DHT22;26089;43.538;5.250;2023-05-15T16:02:07;24.70;99.90
16289;DHT22;26089;43.538;5.250;2023-05-15T16:04:34;24.70;99.90
16289;DHT22;26089;43.538;5.250;2023-05-15T16:07:01;24.80;99.90
16289;DHT22;26089;43.538;5.250;2023-05-15T16:09:30;24.70;99.90
16289;DHT22;26089;43.538;5.250;2023-05-15T16:11:57;24.70;99.90
16289;DHT22;26089;43.538;5.250;2023-05-15T16:14:24;24.70;99.90
16289;DHT22;26089;43.538;5.250;2023-05-15T16:16:52;24.70;99.90
16289;DHT22;26089;43.538;5.250;2023-05-15T16:19:19;24.80;99.90
16289;DHT22;26089;43.538;5.250;2023-05-15T16:21:46;25.10;99.90
16289;DHT22;26089;43.538;5.250;2023-05-15T16:24:13;25.10;99.90
16289;DHT22;26089;43.538;5.250;2023-05-15T16:26:42;24.90;99.90
16289;DHT22;26089;43.538;5.250;2023-05-15T16:29:09;24.50;99.90
16289;DHT22;26089;43.538;5.250;2023-05-15T16:31:36;24.50;99.90
16289;DHT22;26089;43.538;5.250;2023-05-15T16:34:03;24.40;99.90
16289;DHT22;26089;43.538;5.250;2023-05-15T16:36:30;24.50;99.90
16289;DHT22;26089;43.538;5.250;2023-05-15T16:38:59;24.40;99.90
16289;DHT22;26089;43.538;5.250;2023-05-15T16:41:26;24.40;99.90
16289;DHT22;26089;43.538;5.250;2023-05-15T16:43:54;24.30;99.90
16289;DHT22;26089;43.538;5.250;2023-05-15T16:46:21;24.40;99.90
16289;DHT22;26089;43.538;5.250;2023-05-15T16:48:48;24.50;99.90
16289;DHT22;26089;43.538;5.250;2023-05-15T16:51:15;24.50;99.90
16289;DHT22;26089;43.538;5.250;2023-05-15T16:53:42;24.40;99.90
16289;DHT22;26089;43.538;5.250;2023-05-15T16:56:09;24.10;99.90
16289;DHT22;26089;43.538;5.250;2023-05-15T16:58:40;23.90;99.90